sensor_id;sensor_type;location;lat;lon;timestamp;temperature;humidity
33368;DHT22;19724;51.114;13.906;2022-12-17T00:00:45;-3.30;99.90
33368;DHT22;19724;51.114;13.906;2022-12-17T00:03:30;-3.30;99.90
33368;DHT22;19724;51.114;13.906;2022-12-17T00:06:14;-3.40;99.90
33368;DHT22;19724;51.114;13.906;2022-12-17T00:08:57;-3.30;99.90
33368;DHT22;19724;51.114;13.906;2022-12-17T00:11:42;-3.30;99.90
33368;DHT22;19724;51.114;13.906;2022-12-17T00:14:26;-3.30;99.90
33368;DHT22;19724;51.114;13.906;2022-12-17T00:17:10;-3.30;99.90
33368;DHT22;19724;51.114;13.906;2022-12-17T00:19:54;-3.30;99.90
33368;DHT22;19724;51.114;13.906;2022-12-17T00:22:38;-3.30;99.90
33368;DHT22;19724;51.114;13.906;2022-12-17T00:25:22;-3.30;99.90
33368;DHT22;19724;51.114;13.906;2022-12-17T00:28:11;-3.20;99.90
33368;DHT22;19724;51.114;13.906;2022-12-17T00:30:55;-3.30;99.90
33368;DHT22;19724;51.114;13.906;2022-12-17T00:33:39;-3.30;99.90
33368;DHT22;19724;51.114;13.906;2022-12-17T00:36:24;-3.30;99.90
33368;DHT22;19724;51.114;13.906;2022-12-17T00:39:08;-3.20;99.90
33368;DHT22;19724;51.114;13.906;2022-12-17T00:41:52;-3.40;99.90
33368;DHT22;19724;51.114;13.906;2022-12-17T00:44:36;-3.30;99.90
33368;DHT22;19724;51.114;13.906;2022-12-17T00:47:20;-3.30;99.90
33368;DHT22;19724;51.114;13.906;2022-12-17T00:50:05;-3.30;99.90
33368;DHT22;19724;51.114;13.906;2022-12-17T00:52:51;-3.30;99.90
33368;DHT22;19724;51.114;13.906;2022-12-17T00:55:36;-3.30;99.90
33368;DHT22;19724;51.114;13.906;2022-12-17T00:58:20;-3.30;99.90
33368;DHT22;19724;51.114;13.906;2022-12-17T01:01:05;-3.30;99.90
33368;DHT22;19724;51.114;13.906;2022-12-17T01:03:49;-3.30;99.90
33368;DHT22;19724;51.114;13.906;2022-12-17T01:06:33;-3.30;99.90
33368;DHT22;19724;51.114;13.906;2022-12-17T01:09:17;-3.30;99.90
33368;DHT22;19724;51.114;13.906;2022-12-17T01:12:01;-3.30;99.90
33368;DHT22;19724;51.114;13.906;2022-12-17T01:14:45;-3.20;99.90
33368;DHT22;19724;51.114;13.906;2022-12-17T01:17:29;-3.20;99.90
33368;DHT22;19724;51.114;13.906;2022-12-17T01:20:13;-3.20;99.90
33368;DHT22;19724;51.114;13.906;2022-12-17T01:22:57;-3.20;99.90
33368;DHT22;19724;51.114;13.906;2022-12-17T01:25:41;-3.30;99.90
33368;DHT22;19724;51.114;13.906;2022-12-17T01:28:26;-3.30;99.90
33368;DHT22;19724;51.114;13.906;2022-12-17T01:31:10;-3.30;99.90
33368;DHT22;19724;51.114;13.906;2022-12-17T01:33:55;-3.30;99.90
33368;DHT22;19724;51.114;13.906;2022-12-17T01:36:41;-3.30;99.90
33368;DHT22;19724;51.114;13.906;2022-12-17T01:39:25;-3.30;99.90
33368;DHT22;19724;51.114;13.906;2022-12-17T01:42:12;-3.30;99.90
33368;DHT22;19724;51.114;13.906;2022-12-17T01:44:57;-3.30;99.90
33368;DHT22;19724;51.114;13.906;2022-12-17T01:47:49;-3.30;99.90
33368;DHT22;19724;51.114;13.906;2022-12-17T01:50:37;-3.30;99.90
33368;DHT22;19724;51.114;13.906;2022-12-17T01:53:24;-3.30;99.90
33368;DHT22;19724;51.114;13.906;2022-12-17T01:56:10;-3.30;99.90
33368;DHT22;19724;51.114;13.906;2022-12-17T01:58:55;-3.30;99.90
33368;DHT22;19724;51.114;13.906;2022-12-17T02:01:40;-3.40;99.90
33368;DHT22;19724;51.114;13.906;2022-12-17T02:04:24;-3.30;99.90
33368;DHT22;19724;51.114;13.906;2022-12-17T02:13:18;-3.30;99.90
33368;DHT22;19724;51.114;13.906;2022-12-17T02:16:12;-3.30;99.90
33368;DHT22;19724;51.114;13.906;2022-12-17T02:19:29;-3.30;99.90
33368;DHT22;19724;51.114;13.906;2022-12-17T02:25:31;-3.30;99.90
33368;DHT22;19724;51.114;13.906;2022-12-17T02:28:19;-3.30;99.90
33368;DHT22;19724;51.114;13.906;2022-12-17T02:31:06;-3.30;99.90
33368;DHT22;19724;51.114;13.906;2022-12-17T02:33:50;-3.30;99.90
33368;DHT22;19724;51.114;13.906;2022-12-17T02:36:35;-3.30;99.90
33368;DHT22;19724;51.114;13.906;2022-12-17T02:39:21;-3.40;99.90
33368;DHT22;19724;51.114;13.906;2022-12-17T02:42:06;-3.40;99.90
33368;DHT22;19724;51.114;13.906;2022-12-17T02:44:51;-3.30;99.90
33368;DHT22;19724;51.114;13.906;2022-12-17T02:47:35;-3.40;99.90
33368;DHT22;19724;51.114;13.906;2022-12-17T02:50:20;-3.40;99.90
33368;DHT22;19724;51.114;13.906;2022-12-17T02:53:04;-3.30;99.90
33368;DHT22;19724;51.114;13.906;2022-12-17T02:55:48;-3.30;99.90
33368;DHT22;19724;51.114;13.906;2022-12-17T02:58:35;-3.30;99.90
33368;DHT22;19724;51.114;13.906;2022-12-17T03:01:19;-3.20;99.90
33368;DHT22;19724;51.114;13.906;2022-12-17T03:04:03;-3.20;99.90
33368;DHT22;19724;51.114;13.906;2022-12-17T03:06:47;-3.20;99.90
33368;DHT22;19724;51.114;13.906;2022-12-17T03:09:31;-3.20;99.90
33368;DHT22;19724;51.114;13.906;2022-12-17T03:12:15;-3.20;99.90
33368;DHT22;19724;51.114;13.906;2022-12-17T03:14:59;-3.20;99.90
33368;DHT22;19724;51.114;13.906;2022-12-17T03:17:43;-3.20;99.90
33368;DHT22;19724;51.114;13.906;2022-12-17T03:20:27;-3.20;99.90
33368;DHT22;19724;51.114;13.906;2022-12-17T03:23:11;-3.20;99.90
33368;DHT22;19724;51.114;13.906;2022-12-17T03:26:00;-3.20;99.90
33368;DHT22;19724;51.114;13.906;2022-12-17T03:28:45;-3.20;99.90
33368;DHT22;19724;51.114;13.906;2022-12-17T03:31:31;-3.20;99.90
33368;DHT22;19724;51.114;13.906;2022-12-17T03:34:15;-3.20;99.90
33368;DHT22;19724;51.114;13.906;2022-12-17T03:36:59;-3.20;99.90
33368;DHT22;19724;51.114;13.906;2022-12-17T03:39:43;-3.20;99.90
33368;DHT22;19724;51.114;13.906;2022-12-17T03:42:27;-3.20;99.90
33368;DHT22;19724;51.114;13.906;2022-12-17T03:45:12;-3.20;99.90
33368;DHT22;19724;51.114;13.906;2022-12-17T03:48:10;-3.30;99.90
33368;DHT22;19724;51.114;13.906;2022-12-17T03:50:55;-3.20;99.90
33368;DHT22;19724;51.114;13.906;2022-12-17T03:53:39;-3.20;99.90
33368;DHT22;19724;51.114;13.906;2022-12-17T03:56:23;-3.20;99.90
33368;DHT22;19724;51.114;13.906;2022-12-17T03:59:08;-3.30;99.90
33368;DHT22;19724;51.114;13.906;2022-12-17T04:01:52;-3.30;99.90
33368;DHT22;19724;51.114;13.906;2022-12-17T04:04:36;-3.30;99.90
33368;DHT22;19724;51.114;13.906;2022-12-17T04:07:20;-3.30;99.90
33368;DHT22;19724;51.114;13.906;2022-12-17T04:10:05;-3.30;99.90
33368;DHT22;19724;51.114;13.906;2022-12-17T04:12:50;-3.30;99.90
33368;DHT22;19724;51.114;13.906;2022-12-17T04:15:34;-3.30;99.90
33368;DHT22;19724;51.114;13.906;2022-12-17T04:18:18;-3.30;99.90
33368;DHT22;19724;51.114;13.906;2022-12-17T04:21:02;-3.20;99.90
33368;DHT22;19724;51.114;13.906;2022-12-17T04:23:46;-3.20;99.90
33368;DHT22;19724;51.114;13.906;2022-12-17T04:26:30;-3.20;99.90
33368;DHT22;19724;51.114;13.906;2022-12-17T04:29:14;-3.30;99.90
33368;DHT22;19724;51.114;13.906;2022-12-17T04:31:58;-3.30;99.90
33368;DHT22;19724;51.114;13.906;2022-12-17T04:34:42;-3.20;99.90
33368;DHT22;19724;51.114;13.906;2022-12-17T04:37:26;-3.20;99.90
33368;DHT22;19724;51.114;13.906;2022-12-17T04:40:11;-3.10;99.90
33368;DHT22;19724;51.114;13.906;2022-12-17T04:42:55;-3.20;99.90
33368;DHT22;19724;51.114;13.906;2022-12-17T04:45:39;-3.10;99.90
33368;DHT22;19724;51.114;13.906;2022-12-17T04:48:23;-3.10;99.90
33368;DHT22;19724;51.114;13.906;2022-12-17T04:51:08;-3.20;99.90
33368;DHT22;19724;51.114;13.906;2022-12-17T04:53:52;-3.10;99.90
33368;DHT22;19724;51.114;13.906;2022-12-17T04:56:37;-3.10;99.90
33368;DHT22;19724;51.114;13.906;2022-12-17T04:59:21;-3.10;99.90
33368;DHT22;19724;51.114;13.906;2022-12-17T05:02:05;-3.10;99.90
33368;DHT22;19724;51.114;13.906;2022-12-17T05:04:49;-3.20;99.90
33368;DHT22;19724;51.114;13.906;2022-12-17T05:07:33;-3.10;99.90
33368;DHT22;19724;51.114;13.906;2022-12-17T05:10:27;-3.10;99.90
33368;DHT22;19724;51.114;13.906;2022-12-17T05:13:12;-3.10;99.90
33368;DHT22;19724;51.114;13.906;2022-12-17T05:15:56;-3.10;99.90
33368;DHT22;19724;51.114;13.906;2022-12-17T05:18:40;-3.00;99.90
33368;DHT22;19724;51.114;13.906;2022-12-17T05:21:24;-3.00;99.90
33368;DHT22;19724;51.114;13.906;2022-12-17T05:24:08;-3.00;99.90
33368;DHT22;19724;51.114;13.906;2022-12-17T05:26:52;-3.00;99.90
33368;DHT22;19724;51.114;13.906;2022-12-17T05:29:45;-3.00;99.90
33368;DHT22;19724;51.114;13.906;2022-12-17T05:32:29;-3.00;99.90
33368;DHT22;19724;51.114;13.906;2022-12-17T05:35:13;-3.00;99.90
33368;DHT22;19724;51.114;13.906;2022-12-17T05:38:07;-2.90;99.90
33368;DHT22;19724;51.114;13.906;2022-12-17T05:40:55;-3.00;99.90
33368;DHT22;19724;51.114;13.906;2022-12-17T05:43:39;-3.00;99.90
33368;DHT22;19724;51.114;13.906;2022-12-17T05:46:24;-2.90;99.90
33368;DHT22;19724;51.114;13.906;2022-12-17T05:49:08;-2.90;99.90
33368;DHT22;19724;51.114;13.906;2022-12-17T05:51:52;-2.90;99.90
33368;DHT22;19724;51.114;13.906;2022-12-17T05:54:36;-2.90;99.90
33368;DHT22;19724;51.114;13.906;2022-12-17T05:57:20;-2.90;99.90
33368;DHT22;19724;51.114;13.906;2022-12-17T06:00:04;-2.90;99.90
33368;DHT22;19724;51.114;13.906;2022-12-17T06:02:55;-2.90;99.90
33368;DHT22;19724;51.114;13.906;2022-12-17T06:05:39;-2.90;99.90
33368;DHT22;19724;51.114;13.906;2022-12-17T06:08:32;-2.90;99.90
33368;DHT22;19724;51.114;13.906;2022-12-17T06:11:16;-2.90;99.90
33368;DHT22;19724;51.114;13.906;2022-12-17T06:14:00;-2.90;99.90
33368;DHT22;19724;51.114;13.906;2022-12-17T06:16:44;-2.90;99.90
33368;DHT22;19724;51.114;13.906;2022-12-17T06:19:28;-2.90;99.90
33368;DHT22;19724;51.114;13.906;2022-12-17T06:22:13;-2.90;99.90
33368;DHT22;19724;51.114;13.906;2022-12-17T06:24:57;-2.90;99.90
33368;DHT22;19724;51.114;13.906;2022-12-17T06:27:41;-2.90;99.90
33368;DHT22;19724;51.114;13.906;2022-12-17T06:30:25;-2.90;99.90
33368;DHT22;19724;51.114;13.906;2022-12-17T06:33:10;-2.80;99.90
33368;DHT22;19724;51.114;13.906;2022-12-17T06:35:55;-2.80;99.90
33368;DHT22;19724;51.114;13.906;2022-12-17T06:38:40;-2.80;99.90
33368;DHT22;19724;51.114;13.906;2022-12-17T06:41:24;-2.80;99.90
33368;DHT22;19724;51.114;13.906;2022-12-17T06:44:08;-2.80;99.90
33368;DHT22;19724;51.114;13.906;2022-12-17T06:46:52;-2.80;99.90
33368;DHT22;19724;51.114;13.906;2022-12-17T06:49:36;-2.80;99.90
33368;DHT22;19724;51.114;13.906;2022-12-17T06:52:20;-2.80;99.90
33368;DHT22;19724;51.114;13.906;2022-12-17T06:55:04;-2.70;99.90
33368;DHT22;19724;51.114;13.906;2022-12-17T06:57:55;-2.70;99.90
33368;DHT22;19724;51.114;13.906;2022-12-17T07:00:39;-2.70;99.90
33368;DHT22;19724;51.114;13.906;2022-12-17T07:03:23;-2.80;99.90
33368;DHT22;19724;51.114;13.906;2022-12-17T07:06:07;-2.70;99.90
33368;DHT22;19724;51.114;13.906;2022-12-17T07:08:51;-2.70;99.90
33368;DHT22;19724;51.114;13.906;2022-12-17T07:11:35;-2.70;99.90
33368;DHT22;19724;51.114;13.906;2022-12-17T07:14:19;-2.70;99.90
33368;DHT22;19724;51.114;13.906;2022-12-17T07:17:03;-2.70;99.90
33368;DHT22;19724;51.114;13.906;2022-12-17T07:19:48;-2.70;99.90
33368;DHT22;19724;51.114;13.906;2022-12-17T07:22:32;-2.70;99.90
33368;DHT22;19724;51.114;13.906;2022-12-17T07:25:16;-2.70;99.90
33368;DHT22;19724;51.114;13.906;2022-12-17T07:28:00;-2.70;99.90
33368;DHT22;19724;51.114;13.906;2022-12-17T07:30:44;-2.60;99.90
33368;DHT22;19724;51.114;13.906;2022-12-17T07:33:28;-2.60;99.90
33368;DHT22;19724;51.114;13.906;2022-12-17T07:36:12;-2.60;99.90
33368;DHT22;19724;51.114;13.906;2022-12-17T07:38:56;-2.60;99.90
33368;DHT22;19724;51.114;13.906;2022-12-17T07:41:40;-2.60;99.90
33368;DHT22;19724;51.114;13.906;2022-12-17T07:44:24;-2.50;99.90
33368;DHT22;19724;51.114;13.906;2022-12-17T07:47:08;-2.50;99.90
33368;DHT22;19724;51.114;13.906;2022-12-17T07:49:52;-2.50;99.90
33368;DHT22;19724;51.114;13.906;2022-12-17T07:52:36;-2.40;99.90
33368;DHT22;19724;51.114;13.906;2022-12-17T07:55:20;-2.40;99.90
33368;DHT22;19724;51.114;13.906;2022-12-17T07:58:08;-2.40;99.90
33368;DHT22;19724;51.114;13.906;2022-12-17T08:00:52;-2.40;99.90
33368;DHT22;19724;51.114;13.906;2022-12-17T08:03:36;-2.40;99.90
33368;DHT22;19724;51.114;13.906;2022-12-17T08:06:20;-2.40;99.90
33368;DHT22;19724;51.114;13.906;2022-12-17T08:09:04;-2.40;99.90
33368;DHT22;19724;51.114;13.906;2022-12-17T08:11:48;-2.40;99.90
33368;DHT22;19724;51.114;13.906;2022-12-17T08:14:32;-2.30;99.90
33368;DHT22;19724;51.114;13.906;2022-12-17T08:17:16;-2.30;99.90
33368;DHT22;19724;51.114;13.906;2022-12-17T08:20:00;-2.30;99.90
33368;DHT22;19724;51.114;13.906;2022-12-17T08:22:44;-2.30;99.90
33368;DHT22;19724;51.114;13.906;2022-12-17T08:25:28;-2.10;99.90
33368;DHT22;19724;51.114;13.906;2022-12-17T08:28:12;-2.20;99.90
33368;DHT22;19724;51.114;13.906;2022-12-17T08:30:56;-2.20;99.90
33368;DHT22;19724;51.114;13.906;2022-12-17T08:33:40;-2.20;99.90
33368;DHT22;19724;51.114;13.906;2022-12-17T08:36:24;-2.20;99.90
33368;DHT22;19724;51.114;13.906;2022-12-17T08:39:08;-2.10;99.90
33368;DHT22;19724;51.114;13.906;2022-12-17T08:41:52;-2.10;99.90
33368;DHT22;19724;51.114;13.906;2022-12-17T08:44:36;-2.10;99.90
33368;DHT22;19724;51.114;13.906;2022-12-17T08:47:20;-2.10;99.90
33368;DHT22;19724;51.114;13.906;2022-12-17T08:50:06;-2.10;99.90
33368;DHT22;19724;51.114;13.906;2022-12-17T08:52:59;-2.10;99.90
33368;DHT22;19724;51.114;13.906;2022-12-17T08:55:44;-2.10;99.90
33368;DHT22;19724;51.114;13.906;2022-12-17T08:58:28;-2.10;99.90
33368;DHT22;19724;51.114;13.906;2022-12-17T09:01:12;-2.00;99.90
33368;DHT22;19724;51.114;13.906;2022-12-17T09:03:56;-2.00;99.90
33368;DHT22;19724;51.114;13.906;2022-12-17T09:06:40;-2.00;99.90
33368;DHT22;19724;51.114;13.906;2022-12-17T09:09:24;-1.90;99.90
33368;DHT22;19724;51.114;13.906;2022-12-17T09:12:08;-1.90;99.90
33368;DHT22;19724;51.114;13.906;2022-12-17T09:14:52;-1.90;99.90
33368;DHT22;19724;51.114;13.906;2022-12-17T09:17:36;-1.90;99.90
33368;DHT22;19724;51.114;13.906;2022-12-17T09:20:20;-2.00;99.90
33368;DHT22;19724;51.114;13.906;2022-12-17T09:23:04;-1.90;99.90
33368;DHT22;19724;51.114;13.906;2022-12-17T09:25:53;-1.90;99.90
33368;DHT22;19724;51.114;13.906;2022-12-17T09:28:38;-2.00;99.90
33368;DHT22;19724;51.114;13.906;2022-12-17T09:31:22;-1.90;99.90
33368;DHT22;19724;51.114;13.906;2022-12-17T09:34:06;-1.90;99.90
33368;DHT22;19724;51.114;13.906;2022-12-17T09:36:50;-1.80;99.90
33368;DHT22;19724;51.114;13.906;2022-12-17T09:39:34;-1.90;99.90
33368;DHT22;19724;51.114;13.906;2022-12-17T09:42:25;-1.80;99.90
33368;DHT22;19724;51.114;13.906;2022-12-17T09:45:34;-1.70;99.90
33368;DHT22;19724;51.114;13.906;2022-12-17T09:48:55;-1.70;99.90
33368;DHT22;19724;51.114;13.906;2022-12-17T09:51:41;-1.70;99.90
33368;DHT22;19724;51.114;13.906;2022-12-17T09:54:40;-1.70;99.90
33368;DHT22;19724;51.114;13.906;2022-12-17T09:57:29;-1.60;99.90
33368;DHT22;19724;51.114;13.906;2022-12-17T10:00:27;-1.60;99.90
33368;DHT22;19724;51.114;13.906;2022-12-17T10:03:18;-1.60;99.90
33368;DHT22;19724;51.114;13.906;2022-12-17T10:06:10;-1.50;99.90
33368;DHT22;19724;51.114;13.906;2022-12-17T10:08:58;-1.50;99.90
33368;DHT22;19724;51.114;13.906;2022-12-17T10:11:43;-1.50;99.90
33368;DHT22;19724;51.114;13.906;2022-12-17T10:14:27;-1.40;99.90
33368;DHT22;19724;51.114;13.906;2022-12-17T10:17:20;-1.40;99.90
33368;DHT22;19724;51.114;13.906;2022-12-17T10:20:17;-1.40;99.90
33368;DHT22;19724;51.114;13.906;2022-12-17T10:23:04;-1.40;99.90
33368;DHT22;19724;51.114;13.906;2022-12-17T10:25:53;-1.30;99.90
33368;DHT22;19724;51.114;13.906;2022-12-17T10:28:37;-1.30;99.90
33368;DHT22;19724;51.114;13.906;2022-12-17T10:31:22;-1.30;99.90
33368;DHT22;19724;51.114;13.906;2022-12-17T10:34:15;-1.40;99.90
33368;DHT22;19724;51.114;13.906;2022-12-17T10:37:01;-1.30;99.90
33368;DHT22;19724;51.114;13.906;2022-12-17T10:39:59;-1.30;99.90
33368;DHT22;19724;51.114;13.906;2022-12-17T10:42:44;-1.10;99.90
33368;DHT22;19724;51.114;13.906;2022-12-17T10:45:34;-1.20;99.90
33368;DHT22;19724;51.114;13.906;2022-12-17T10:48:28;-1.20;99.90
33368;DHT22;19724;51.114;13.906;2022-12-17T10:51:20;-1.20;99.90
33368;DHT22;19724;51.114;13.906;2022-12-17T10:54:16;-1.20;99.90
33368;DHT22;19724;51.114;13.906;2022-12-17T10:57:05;-1.10;99.90
33368;DHT22;19724;51.114;13.906;2022-12-17T10:59:50;-1.00;99.90
33368;DHT22;19724;51.114;13.906;2022-12-17T11:02:35;-1.10;99.90
33368;DHT22;19724;51.114;13.906;2022-12-17T11:05:26;-1.10;99.90
33368;DHT22;19724;51.114;13.906;2022-12-17T11:08:15;-1.10;99.90
33368;DHT22;19724;51.114;13.906;2022-12-17T11:11:06;-1.00;99.90
33368;DHT22;19724;51.114;13.906;2022-12-17T11:13:52;-1.00;99.90
33368;DHT22;19724;51.114;13.906;2022-12-17T11:16:42;-0.90;99.90
33368;DHT22;19724;51.114;13.906;2022-12-17T11:19:35;-0.90;99.90
33368;DHT22;19724;51.114;13.906;2022-12-17T11:25:33;-0.90;99.90
33368;DHT22;19724;51.114;13.906;2022-12-17T11:28:25;-0.90;99.90
33368;DHT22;19724;51.114;13.906;2022-12-17T11:31:25;-0.90;99.90
33368;DHT22;19724;51.114;13.906;2022-12-17T11:37:40;-0.80;99.90
33368;DHT22;19724;51.114;13.906;2022-12-17T11:40:39;-0.80;99.90
33368;DHT22;19724;51.114;13.906;2022-12-17T11:43:52;-0.70;99.90
33368;DHT22;19724;51.114;13.906;2022-12-17T11:46:44;-0.60;99.90
33368;DHT22;19724;51.114;13.906;2022-12-17T11:49:44;-0.60;99.90
33368;DHT22;19724;51.114;13.906;2022-12-17T11:52:48;-0.50;99.90
33368;DHT22;19724;51.114;13.906;2022-12-17T11:55:55;-0.50;99.90
33368;DHT22;19724;51.114;13.906;2022-12-17T11:58:50;-0.50;99.90
33368;DHT22;19724;51.114;13.906;2022-12-17T12:02:06;-0.40;99.90
33368;DHT22;19724;51.114;13.906;2022-12-17T12:07:53;-0.40;99.90
33368;DHT22;19724;51.114;13.906;2022-12-17T12:14:38;-0.30;99.90
33368;DHT22;19724;51.114;13.906;2022-12-17T12:27:15;-0.30;99.90
33368;DHT22;19724;51.114;13.906;2022-12-17T12:30:10;-0.30;99.90
33368;DHT22;19724;51.114;13.906;2022-12-17T12:33:21;-0.40;99.90
33368;DHT22;19724;51.114;13.906;2022-12-17T12:36:11;-0.40;99.90
33368;DHT22;19724;51.114;13.906;2022-12-17T12:38:58;-0.40;99.90
33368;DHT22;19724;51.114;13.906;2022-12-17T12:44:46;-0.40;99.90
33368;DHT22;19724;51.114;13.906;2022-12-17T12:48:13;-0.40;99.90
33368;DHT22;19724;51.114;13.906;2022-12-17T12:51:19;-0.50;99.90
33368;DHT22;19724;51.114;13.906;2022-12-17T12:54:49;-0.50;99.90
33368;DHT22;19724;51.114;13.906;2022-12-17T13:06:12;-0.50;99.90
33368;DHT22;19724;51.114;13.906;2022-12-17T13:08:38;-0.50;99.90
33368;DHT22;19724;51.114;13.906;2022-12-17T13:11:28;-0.60;99.90
33368;DHT22;19724;51.114;13.906;2022-12-17T13:13:58;-0.60;99.90
33368;DHT22;19724;51.114;13.906;2022-12-17T13:16:40;-0.60;99.90
33368;DHT22;19724;51.114;13.906;2022-12-17T13:19:35;-0.70;99.90
33368;DHT22;19724;51.114;13.906;2022-12-17T13:24:40;-0.70;99.90
33368;DHT22;19724;51.114;13.906;2022-12-17T13:27:35;-0.70;99.90
33368;DHT22;19724;51.114;13.906;2022-12-17T13:33:06;-0.80;99.90
33368;DHT22;19724;51.114;13.906;2022-12-17T13:41:15;-0.80;99.90
33368;DHT22;19724;51.114;13.906;2022-12-17T13:43:52;-0.80;99.90
33368;DHT22;19724;51.114;13.906;2022-12-17T13:46:27;-0.80;99.90
33368;DHT22;19724;51.114;13.906;2022-12-17T13:48:58;-0.90;99.90
33368;DHT22;19724;51.114;13.906;2022-12-17T13:51:27;-0.90;99.90
33368;DHT22;19724;51.114;13.906;2022-12-17T13:53:58;-0.90;99.90
33368;DHT22;19724;51.114;13.906;2022-12-17T13:56:30;-0.90;99.90
33368;DHT22;19724;51.114;13.906;2022-12-17T13:58:57;-1.00;99.90
33368;DHT22;19724;51.114;13.906;2022-12-17T14:01:23;-1.00;99.90
33368;DHT22;19724;51.114;13.906;2022-12-17T14:03:57;-1.00;99.90
33368;DHT22;19724;51.114;13.906;2022-12-17T14:06:25;-1.10;99.90
33368;DHT22;19724;51.114;13.906;2022-12-17T14:08:53;-1.10;99.90
33368;DHT22;19724;51.114;13.906;2022-12-17T14:11:20;-1.20;99.90
33368;DHT22;19724;51.114;13.906;2022-12-17T14:14:37;-1.20;99.90
33368;DHT22;19724;51.114;13.906;2022-12-17T14:17:03;-1.20;99.90
33368;DHT22;19724;51.114;13.906;2022-12-17T14:19:30;-1.20;99.90
33368;DHT22;19724;51.114;13.906;2022-12-17T14:21:56;-1.20;99.90
33368;DHT22;19724;51.114;13.906;2022-12-17T14:24:49;-1.30;99.90
33368;DHT22;19724;51.114;13.906;2022-12-17T14:27:25;-1.30;99.90
33368;DHT22;19724;51.114;13.906;2022-12-17T14:30:24;-1.20;99.90
33368;DHT22;19724;51.114;13.906;2022-12-17T14:32:55;-1.40;99.90
33368;DHT22;19724;51.114;13.906;2022-12-17T14:35:27;-1.40;99.90
33368;DHT22;19724;51.114;13.906;2022-12-17T14:37:53;-1.40;99.90
33368;DHT22;19724;51.114;13.906;2022-12-17T14:40:19;-1.40;99.90
33368;DHT22;19724;51.114;13.906;2022-12-17T14:42:45;-1.40;99.90
33368;DHT22;19724;51.114;13.906;2022-12-17T14:47:50;-1.30;99.90
33368;DHT22;19724;51.114;13.906;2022-12-17T14:52:47;-1.40;99.90
33368;DHT22;19724;51.114;13.906;2022-12-17T14:55:24;-1.40;99.90
33368;DHT22;19724;51.114;13.906;2022-12-17T14:57:51;-1.50;99.90
33368;DHT22;19724;51.114;13.906;2022-12-17T15:00:18;-1.50;99.90
33368;DHT22;19724;51.114;13.906;2022-12-17T15:02:51;-1.40;99.90
33368;DHT22;19724;51.114;13.906;2022-12-17T15:05:18;-1.40;99.90
33368;DHT22;19724;51.114;13.906;2022-12-17T15:07:44;-1.50;99.90
33368;DHT22;19724;51.114;13.906;2022-12-17T15:10:12;-1.50;99.90
33368;DHT22;19724;51.114;13.906;2022-12-17T15:12:40;-1.50;99.90
33368;DHT22;19724;51.114;13.906;2022-12-17T15:15:10;-1.50;99.90
33368;DHT22;19724;51.114;13.906;2022-12-17T15:17:36;-1.50;99.90
33368;DHT22;19724;51.114;13.906;2022-12-17T15:20:02;-1.50;99.90
33368;DHT22;19724;51.114;13.906;2022-12-17T15:22:28;-1.50;99.90
33368;DHT22;19724;51.114;13.906;2022-12-17T15:24:53;-1.50;99.90
33368;DHT22;19724;51.114;13.906;2022-12-17T15:27:19;-1.50;99.90
33368;DHT22;19724;51.114;13.906;2022-12-17T15:29:45;-1.60;99.90
33368;DHT22;19724;51.114;13.906;2022-12-17T15:32:18;-1.50;99.90
33368;DHT22;19724;51.114;13.906;2022-12-17T15:34:44;-1.50;99.90
33368;DHT22;19724;51.114;13.906;2022-12-17T15:37:10;-1.60;99.90
33368;DHT22;19724;51.114;13.906;2022-12-17T15:39:36;-1.50;99.90
33368;DHT22;19724;51.114;13.906;2022-12-17T15:42:01;-1.50;99.90
33368;DHT22;19724;51.114;13.906;2022-12-17T15:44:45;-1.50;99.90
33368;DHT22;19724;51.114;13.906;2022-12-17T15:47:11;-1.60;99.90
33368;DHT22;19724;51.114;13.906;2022-12-17T15:49:36;-1.60;99.90
33368;DHT22;19724;51.114;13.906;2022-12-17T15:52:02;-1.60;99.90
33368;DHT22;19724;51.114;13.906;2022-12-17T15:54:28;-1.60;99.90
33368;DHT22;19724;51.114;13.906;2022-12-17T15:56:54;-1.60;99.90
33368;DHT22;19724;51.114;13.906;2022-12-17T15:59:20;-1.60;99.90
33368;DHT22;19724;51.114;13.906;2022-12-17T16:01:45;-1.60;99.90
33368;DHT22;19724;51.114;13.906;2022-12-17T16:04:11;-1.60;99.90
33368;DHT22;19724;51.114;13.906;2022-12-17T16:06:36;-1.60;99.90
33368;DHT22;19724;51.114;13.906;2022-12-17T16:09:02;-1.70;99.90
33368;DHT22;19724;51.114;13.906;2022-12-17T16:11:28;-1.70;99.90
33368;DHT22;19724;51.114;13.906;2022-12-17T16:13:54;-1.60;99.90
33368;DHT22;19724;51.114;13.906;2022-12-17T16:16:21;-1.70;99.90
33368;DHT22;19724;51.114;13.906;2022-12-17T16:18:46;-1.70;99.90
33368;DHT22;19724;51.114;13.906;2022-12-17T16:21:12;-1.70;99.90
33368;DHT22;19724;51.114;13.906;2022-12-17T16:23:38;-1.70;99.90
33368;DHT22;19724;51.114;13.906;2022-12-17T16:26:05;-1.70;99.90
33368;DHT22;19724;51.114;13.906;2022-12-17T16:28:35;-1.70;99.90
33368;DHT22;19724;51.114;13.906;2022-12-17T16:31:06;-1.60;99.90
33368;DHT22;19724;51.114;13.906;2022-12-17T16:33:38;-1.80;99.90
33368;DHT22;19724;51.114;13.906;2022-12-17T16:36:05;-1.80;99.90
33368;DHT22;19724;51.114;13.906;2022-12-17T16:38:31;-1.80;99.90
33368;DHT22;19724;51.114;13.906;2022-12-17T16:40:59;-1.80;99.90
33368;DHT22;19724;51.114;13.906;2022-12-17T16:43:25;-1.80;99.90
33368;DHT22;19724;51.114;13.906;2022-12-17T16:45:52;-1.80;99.90
33368;DHT22;19724;51.114;13.906;2022-12-17T16:48:19;-1.80;99.90
33368;DHT22;19724;51.114;13.906;2022-12-17T16:50:46;-1.80;99.90
33368;DHT22;19724;51.114;13.906;2022-12-17T16:53:12;-1.80;99.90
33368;DHT22;19724;51.114;13.906;2022-12-17T16:55:45;-1.80;99.90
33368;DHT22;19724;51.114;13.906;2022-12-17T16:58:15;-1.80;99.90
33368;DHT22;19724;51.114;13.906;2022-12-17T17:00:41;-1.80;99.90
33368;DHT22;19724;51.114;13.906;2022-12-17T17:03:07;-1.80;99.90
33368;DHT22;19724;51.114;13.906;2022-12-17T17:05:35;-1.80;99.90
33368;DHT22;19724;51.114;13.906;2022-12-17T17:08:01;-1.80;99.90
33368;DHT22;19724;51.114;13.906;2022-12-17T17:10:27;-1.80;99.90
33368;DHT22;19724;51.114;13.906;2022-12-17T17:12:53;-1.80;99.90
33368;DHT22;19724;51.114;13.906;2022-12-17T17:15:20;-1.80;99.90
33368;DHT22;19724;51.114;13.906;2022-12-17T17:17:47;-1.80;99.90
33368;DHT22;19724;51.114;13.906;2022-12-17T17:20:13;-1.80;99.90
33368;DHT22;19724;51.114;13.906;2022-12-17T17:22:38;-1.80;99.90
33368;DHT22;19724;51.114;13.906;2022-12-17T17:25:04;-1.70;99.90
33368;DHT22;19724;51.114;13.906;2022-12-17T17:27:30;-1.80;99.90
33368;DHT22;19724;51.114;13.906;2022-12-17T17:29:56;-1.80;99.90
33368;DHT22;19724;51.114;13.906;2022-12-17T17:32:23;-1.80;99.90
33368;DHT22;19724;51.114;13.906;2022-12-17T17:34:48;-1.80;99.90
33368;DHT22;19724;51.114;13.906;2022-12-17T17:37:14;-1.90;99.90
33368;DHT22;19724;51.114;13.906;2022-12-17T17:39:40;-1.90;99.90
33368;DHT22;19724;51.114;13.906;2022-12-17T17:42:06;-2.00;99.90
33368;DHT22;19724;51.114;13.906;2022-12-17T17:44:31;-2.10;99.90
33368;DHT22;19724;51.114;13.906;2022-12-17T17:46:57;-2.10;99.90